Time;durP1;ratioP1;P1;durP2;ratioP2;P2;SDS_P1;SDS_P2;PMS_P1;PMS_P2;Temp;Humidity;BMP_temperature;BMP_pressure;BME280_temperature;BME280_humidity;BME280_pressure;Samples;Min_cycle;Max_cycle;Signal;HPM_P1;HPM_P2
2023/03/12 00:01:58;;;;;;;0.32;0.15;;;;;;;18.97;38.82;101077.16;4838512;29;96844;-73
2023/03/12 00:04:25;;;;;;;0.38;0.30;;;;;;;18.98;39.00;101078.88;4838135;29;97092;-73
2023/03/12 00:06:52;;;;;;;0.32;0.30;;;;;;;18.96;39.09;101074.59;4836954;29;97848;-74
2023/03/12 00:09:19;;;;;;;0.30;0.20;;;;;;;18.94;39.22;101076.63;4837716;29;96635;-73
2023/03/12 00:11:45;;;;;;;0.20;0.17;;;;;;;18.94;39.09;101071.19;4837074;29;96889;-75
2023/03/12 00:14:12;;;;;;;0.38;0.30;;;;;;;18.92;38.72;101078.66;4854853;28;96866;-73
2023/03/12 00:16:39;;;;;;;0.38;0.20;;;;;;;18.92;39.03;101075.91;4837631;29;97583;-73
2023/03/12 00:19:05;;;;;;;0.28;0.20;;;;;;;18.92;38.94;101065.03;4837922;29;97660;-73
2023/03/12 00:21:31;;;;;;;0.25;0.20;;;;;;;18.91;39.25;101066.91;4837519;29;97049;-73
2023/03/12 00:23:58;;;;;;;0.70;0.30;;;;;;;18.90;39.05;101057.03;4837850;29;96771;-73
2023/03/12 00:26:24;;;;;;;0.30;0.20;;;;;;;18.93;39.02;101056.72;4837855;29;97106;-74
2023/03/12 00:28:51;;;;;;;0.50;0.30;;;;;;;18.91;38.89;101056.03;4836407;29;98626;-73
2023/03/12 00:31:25;;;;;;;0.60;0.32;;;;;;;18.93;38.96;101055.88;4835890;29;96994;-73
2023/03/12 00:33:53;;;;;;;0.30;0.20;;;;;;;18.91;38.99;101053.28;4838128;29;96774;-73
2023/03/12 00:36:23;;;;;;;0.32;0.20;;;;;;;18.91;39.01;101047.84;4837961;29;98965;-74
2023/03/12 00:38:51;;;;;;;0.10;0.10;;;;;;;18.92;39.07;101044.13;4838095;29;97657;-75
2023/03/12 00:41:18;;;;;;;0.63;0.40;;;;;;;18.91;39.03;101031.53;4837728;29;96934;-73
2023/03/12 00:43:46;;;;;;;0.32;0.20;;;;;;;18.89;38.87;101033.56;4834254;29;96912;-73
2023/03/12 00:46:13;;;;;;;0.20;0.20;;;;;;;18.94;39.16;101028.47;4835607;29;98902;-73
2023/03/12 00:48:40;;;;;;;0.20;0.20;;;;;;;18.95;38.93;101032.91;4838004;29;97612;-74
2023/03/12 00:51:06;;;;;;;0.13;0.13;;;;;;;18.94;38.96;101019.47;4835166;29;96848;-75
2023/03/12 00:53:34;;;;;;;0.50;0.20;;;;;;;18.97;38.95;101020.00;4837825;29;96837;-74
2023/03/12 00:56:01;;;;;;;0.57;0.28;;;;;;;18.97;39.06;101022.72;4851282;29;99637;-73
2023/03/12 00:58:28;;;;;;;0.95;0.30;;;;;;;18.95;38.96;101027.47;4835655;29;96760;-73
2023/03/12 01:00:54;;;;;;;0.30;0.22;;;;;;;18.96;38.99;101039.22;4837139;29;97702;-73
2023/03/12 01:03:21;;;;;;;0.10;0.10;;;;;;;18.99;39.14;101030.72;4838056;29;96901;-73
2023/03/12 01:05:52;;;;;;;0.35;0.30;;;;;;;18.97;38.95;101017.28;4838866;29;97147;-74
2023/03/12 01:08:21;;;;;;;0.52;0.30;;;;;;;18.98;39.18;101016.28;4834615;29;98513;-74
2023/03/12 01:10:47;;;;;;;0.65;0.35;;;;;;;18.98;39.14;101012.69;4836373;29;96877;-74
2023/03/12 01:13:14;;;;;;;0.40;0.20;;;;;;;19.00;38.86;101018.81;4836955;29;96925;-73
2023/03/12 01:15:41;;;;;;;0.40;0.20;;;;;;;18.99;39.20;101015.25;4834983;29;98855;-75
2023/03/12 01:18:07;;;;;;;0.35;0.20;;;;;;;18.97;39.15;101006.41;4835451;29;98652;-73
2023/03/12 01:20:34;;;;;;;0.50;0.20;;;;;;;18.98;38.86;101009.97;4836725;29;96929;-74
2023/03/12 01:23:00;;;;;;;0.25;0.20;;;;;;;18.97;39.27;101017.28;4851531;29;96875;-74
2023/03/12 01:25:27;;;;;;;0.40;0.25;;;;;;;18.99;39.16;101009.81;4837189;29;97785;-73
2023/03/12 01:27:53;;;;;;;0.60;0.20;;;;;;;19.00;39.24;101007.94;4835844;29;97979;-74
2023/03/12 01:30:20;;;;;;;0.30;0.15;;;;;;;19.02;39.16;101000.47;4835887;29;97354;-73
2023/03/12 01:32:46;;;;;;;0.25;0.20;;;;;;;19.05;38.70;100990.13;4837296;29;96769;-73
2023/03/12 01:35:13;;;;;;;0.40;0.30;;;;;;;19.04;38.77;100987.56;4835091;29;99976;-75
2023/03/12 01:37:39;;;;;;;0.73;0.32;;;;;;;19.04;39.12;100984.84;4835144;29;96737;-76
2023/03/12 01:40:06;;;;;;;0.30;0.20;;;;;;;19.07;38.66;100972.78;4850091;29;97180;-73
2023/03/12 01:42:33;;;;;;;0.32;0.20;;;;;;;19.04;38.98;100979.38;4834935;29;97117;-73
2023/03/12 01:45:02;;;;;;;0.70;0.25;;;;;;;19.02;38.77;100992.31;4836158;29;96917;-75
2023/03/12 01:47:31;;;;;;;0.38;0.25;;;;;;;19.04;38.79;100988.41;4850917;29;97457;-73
2023/03/12 01:50:00;;;;;;;0.85;0.50;;;;;;;19.02;38.97;100984.13;4835274;29;96929;-73
2023/03/12 01:52:34;;;;;;;0.55;0.20;;;;;;;19.01;39.05;100977.84;4835867;29;96888;-73
2023/03/12 01:55:12;;;;;;;0.40;0.23;;;;;;;19.03;38.98;100975.81;4850983;29;99809;-73
2023/03/12 01:58:00;;;;;;;0.70;0.30;;;;;;;19.03;38.95;100978.53;4836319;29;99742;-73
2023/03/12 02:00:27;;;;;;;0.50;0.40;;;;;;;19.06;38.84;100969.19;4853028;28;96986;-73
2023/03/12 02:02:59;;;;;;;0.38;0.22;;;;;;;19.05;38.85;100962.03;4838196;29;97000;-75
2023/03/12 02:05:42;;;;;;;0.65;0.20;;;;;;;19.04;38.99;100953.03;4832810;29;97958;-73
2023/03/12 02:08:10;;;;;;;0.20;0.20;;;;;;;19.07;38.77;100954.56;4834877;29;98195;-73
2023/03/12 02:10:37;;;;;;;0.40;0.20;;;;;;;19.06;38.95;100950.13;4836057;29;97016;-73
2023/03/12 02:13:05;;;;;;;0.20;0.20;;;;;;;19.07;38.95;100946.41;4835222;29;96945;-74
2023/03/12 02:15:34;;;;;;;0.50;0.30;;;;;;;19.08;38.62;100949.97;4850647;29;99963;-73
2023/03/12 02:18:02;;;;;;;0.60;0.30;;;;;;;19.10;38.82;100953.41;4834835;29;98272;-73
2023/03/12 02:21:00;;;;;;;0.40;0.30;;;;;;;19.09;38.84;100952.53;4833849;29;97058;-73
2023/03/12 02:23:36;;;;;;;0.13;0.13;;;;;;;19.04;38.88;100944.00;4834994;29;96736;-73
2023/03/12 02:26:05;;;;;;;0.30;0.20;;;;;;;19.05;38.91;100945.72;4849552;28;99194;-73
2023/03/12 02:28:41;;;;;;;0.28;0.20;;;;;;;19.03;38.98;100945.88;4850326;29;97451;-73
2023/03/12 02:31:11;;;;;;;0.10;0.10;;;;;;;19.02;38.71;100940.59;4849561;29;96647;-73
2023/03/12 02:33:38;;;;;;;0.30;0.30;;;;;;;19.01;38.86;100938.88;4819751;29;96922;-74
2023/03/12 02:36:05;;;;;;;0.55;0.30;;;;;;;19.05;38.80;100934.81;4836622;29;98301;-74
2023/03/12 02:38:34;;;;;;;0.30;0.20;;;;;;;19.01;39.01;100942.47;4849805;29;97830;-73
2023/03/12 02:41:09;;;;;;;0.22;0.20;;;;;;;19.01;38.68;100942.47;4834507;29;96879;-73
2023/03/12 02:43:37;;;;;;;0.30;0.20;;;;;;;19.01;38.78;100939.72;4833606;29;97282;-73
2023/03/12 02:46:04;;;;;;;0.10;0.10;;;;;;;18.99;38.63;100935.47;4850002;28;99408;-73
2023/03/12 02:48:31;;;;;;;0.30;0.20;;;;;;;18.98;39.06;100923.72;4835860;29;97077;-73
2023/03/12 02:50:58;;;;;;;0.22;0.20;;;;;;;19.02;39.16;100916.94;4835050;29;96823;-73
2023/03/12 02:53:24;;;;;;;0.20;0.20;;;;;;;19.02;38.70;100911.50;4834312;29;97086;-77
2023/03/12 02:55:51;;;;;;;0.20;0.20;;;;;;;19.02;38.87;100908.78;4834409;29;99697;-75
2023/03/12 02:58:17;;;;;;;0.20;0.20;;;;;;;19.02;38.78;100902.47;4835543;29;97761;-73
2023/03/12 03:00:44;;;;;;;0.40;0.30;;;;;;;19.01;38.84;100904.34;4834252;29;97263;-73
2023/03/12 03:03:10;;;;;;;0.30;0.20;;;;;;;19.02;38.86;100902.47;4831924;29;96938;-73
2023/03/12 03:05:37;;;;;;;0.20;0.20;;;;;;;19.01;38.73;100912.53;4834186;29;96859;-75
2023/03/12 03:08:04;;;;;;;0.30;0.22;;;;;;;18.99;39.05;100908.25;4835919;29;96765;-73
2023/03/12 03:10:31;;;;;;;0.50;0.30;;;;;;;19.02;39.13;100907.94;4834200;29;96837;-73
2023/03/12 03:12:57;;;;;;;0.30;0.20;;;;;;;19.02;39.10;100908.78;4834700;29;97176;-74
2023/03/12 03:15:24;;;;;;;1.30;0.20;;;;;;;19.00;38.78;100910.81;4833954;29;96630;-73
2023/03/12 03:17:51;;;;;;;0.22;0.20;;;;;;;19.02;38.86;100908.78;4849404;28;100108;-73
2023/03/12 03:20:17;;;;;;;0.30;0.20;;;;;;;19.08;38.64;100907.28;4833877;29;96758;-74
2023/03/12 03:22:44;;;;;;;0.20;0.15;;;;;;;19.07;38.77;100905.56;4850073;29;96811;-73
2023/03/12 03:25:11;;;;;;;0.20;0.20;;;;;;;19.01;38.68;100898.91;4831771;29;98877;-73
2023/03/12 03:27:37;;;;;;;0.28;0.20;;;;;;;19.01;39.07;100901.63;4835421;29;98692;-74
2023/03/12 03:30:04;;;;;;;0.20;0.20;;;;;;;19.00;39.18;100899.06;4833853;29;96855;-74
2023/03/12 03:32:35;;;;;;;0.20;0.20;;;;;;;19.02;39.17;100913.38;4811896;29;96808;-74
2023/03/12 03:35:02;;;;;;;0.28;0.20;;;;;;;18.99;38.99;100908.25;4835613;29;98447;-73
2023/03/12 03:37:28;;;;;;;0.40;0.30;;;;;;;18.99;39.26;100908.25;4823763;29;98217;-73
2023/03/12 03:39:55;;;;;;;0.22;0.20;;;;;;;19.00;38.69;100897.19;4833060;29;96908;-73
2023/03/12 03:42:22;;;;;;;0.40;0.30;;;;;;;19.02;39.09;100894.31;4833859;29;97084;-73
2023/03/12 03:44:49;;;;;;;0.20;0.20;;;;;;;19.00;38.93;100885.47;4835130;29;97093;-73
2023/03/12 03:47:15;;;;;;;0.28;0.20;;;;;;;19.01;38.77;100884.44;4833766;29;97448;-73
2023/03/12 03:49:42;;;;;;;0.20;0.20;;;;;;;19.01;39.19;100890.75;4835208;29;97733;-75
2023/03/12 03:52:10;;;;;;;0.50;0.20;;;;;;;19.01;39.04;100879.84;4833892;29;96621;-73
2023/03/12 03:54:38;;;;;;;0.22;0.22;;;;;;;19.00;38.75;100891.75;4849211;29;97246;-75
2023/03/12 03:57:06;;;;;;;0.17;0.17;;;;;;;18.99;38.86;100881.88;4833837;29;99654;-73
2023/03/12 03:59:32;;;;;;;0.25;0.20;;;;;;;18.99;39.23;100884.59;4834465;29;96705;-74
2023/03/12 04:02:01;;;;;;;0.68;0.30;;;;;;;18.97;39.02;100883.91;4833908;29;97070;-73
2023/03/12 04:04:30;;;;;;;0.40;0.20;;;;;;;18.98;38.75;100880.19;4832476;29;97751;-74
2023/03/12 04:06:57;;;;;;;0.35;0.20;;;;;;;18.98;39.12;100879.31;4835264;29;97036;-74
2023/03/12 04:09:25;;;;;;;0.60;0.30;;;;;;;18.97;39.20;100867.59;4836965;29;97368;-74
2023/03/12 04:11:51;;;;;;;0.30;0.25;;;;;;;19.00;39.24;100867.25;4850764;29;97144;-73
2023/03/12 04:14:18;;;;;;;0.35;0.20;;;;;;;18.99;39.13;100861.97;4821394;29;96891;-73
2023/03/12 04:16:44;;;;;;;0.40;0.20;;;;;;;19.01;39.13;100859.94;4838350;29;96802;-75
2023/03/12 04:19:11;;;;;;;0.20;0.20;;;;;;;18.99;38.92;100854.66;4836025;29;96770;-73
2023/03/12 04:21:38;;;;;;;0.60;0.20;;;;;;;18.98;39.11;100850.25;4820082;29;96894;-73
2023/03/12 04:24:06;;;;;;;0.38;0.22;;;;;;;18.96;38.94;100856.88;4836585;29;97968;-75
2023/03/12 04:26:34;;;;;;;0.30;0.22;;;;;;;18.93;39.19;100847.16;4836594;29;99449;-73
2023/03/12 04:29:02;;;;;;;0.20;0.15;;;;;;;18.89;38.98;100840.34;4851721;28;96865;-73
2023/03/12 04:31:28;;;;;;;0.20;0.13;;;;;;;18.92;39.23;100837.28;4836931;29;96999;-73
2023/03/12 04:33:55;;;;;;;0.30;0.20;;;;;;;18.90;39.03;100831.16;4836347;29;96873;-74
2023/03/12 04:36:23;;;;;;;0.30;0.20;;;;;;;18.89;39.18;100820.44;4836479;29;99483;-74
2023/03/12 04:38:51;;;;;;;0.20;0.20;;;;;;;18.88;39.04;100827.75;4852289;29;96774;-73
2023/03/12 04:41:22;;;;;;;0.47;0.28;;;;;;;18.90;39.37;100813.97;4835280;29;96865;-73
2023/03/12 04:43:54;;;;;;;0.28;0.20;;;;;;;18.89;39.29;100804.09;4852122;28;98177;-73
2023/03/12 04:46:21;;;;;;;0.50;0.20;;;;;;;18.90;39.24;100803.94;4836694;29;97813;-73
2023/03/12 04:48:48;;;;;;;0.10;0.10;;;;;;;18.91;39.25;100800.19;4836355;29;96957;-73
2023/03/12 04:51:15;;;;;;;0.32;0.30;;;;;;;18.94;39.04;100785.41;4835985;29;97264;-73
2023/03/12 04:53:42;;;;;;;0.30;0.20;;;;;;;18.94;39.00;100796.31;4850817;29;97710;-73
2023/03/12 04:56:11;;;;;;;0.30;0.20;;;;;;;18.96;39.03;100786.09;4836046;29;97065;-73
2023/03/12 04:58:38;;;;;;;0.22;0.20;;;;;;;18.93;39.19;100790.00;4836171;29;96682;-74
2023/03/12 05:01:05;;;;;;;0.10;0.10;;;;;;;18.96;39.28;100794.28;4835770;29;96907;-74
2023/03/12 05:03:32;;;;;;;0.52;0.20;;;;;;;18.94;39.15;100791.72;4836058;29;97743;-73
2023/03/12 05:05:59;;;;;;;0.30;0.20;;;;;;;18.94;39.26;100786.28;4835857;29;98404;-76
2023/03/12 05:08:26;;;;;;;0.30;0.20;;;;;;;18.98;39.31;100784.06;4820695;29;96807;-74
2023/03/12 05:10:53;;;;;;;0.45;0.30;;;;;;;18.97;38.94;100776.91;4833734;29;96909;-73
2023/03/12 05:13:21;;;;;;;0.40;0.20;;;;;;;18.94;39.27;100767.22;4820704;29;96898;-73
2023/03/12 05:15:51;;;;;;;0.25;0.20;;;;;;;18.97;38.95;100766.88;4851166;29;97030;-73
2023/03/12 05:18:21;;;;;;;0.22;0.20;;;;;;;18.95;39.31;100771.66;4849845;29;96730;-73
2023/03/12 05:21:03;;;;;;;0.30;0.20;;;;;;;18.95;38.97;100763.47;4835397;28;96980;-73
2023/03/12 05:23:30;;;;;;;0.20;0.20;;;;;;;18.98;39.30;100760.44;4837057;29;97536;-74
2023/03/12 05:25:57;;;;;;;0.35;0.30;;;;;;;18.97;39.02;100753.28;4835287;29;98654;-73
2023/03/12 05:28:27;;;;;;;0.30;0.30;;;;;;;18.96;39.02;100740.69;4836194;29;97191;-73
2023/03/12 05:30:58;;;;;;;0.73;0.20;;;;;;;18.98;38.70;100733.22;4833615;29;96634;-73
2023/03/12 05:33:26;;;;;;;0.93;0.30;;;;;;;18.98;39.17;100738.66;4837599;29;98231;-74
2023/03/12 05:35:53;;;;;;;0.20;0.20;;;;;;;18.98;38.69;100743.25;4838080;29;99852;-73
2023/03/12 05:38:20;;;;;;;0.30;0.20;;;;;;;18.99;38.76;100734.91;4853238;29;96764;-74
2023/03/12 05:40:53;;;;;;;0.38;0.20;;;;;;;18.98;38.96;100732.34;4836487;29;97247;-73
2023/03/12 05:43:21;;;;;;;0.90;0.80;;;;;;;18.98;38.99;100732.34;4836691;29;98089;-74
2023/03/12 05:45:48;;;;;;;0.32;0.20;;;;;;;18.98;39.30;100732.34;4835931;29;97781;-73
2023/03/12 05:48:15;;;;;;;0.32;0.20;;;;;;;18.97;39.11;100736.94;4837026;29;97124;-73
2023/03/12 05:50:42;;;;;;;0.30;0.22;;;;;;;18.95;39.07;100738.97;4835631;29;97566;-73
2023/03/12 05:53:09;;;;;;;0.50;0.22;;;;;;;18.95;39.01;100730.81;4836567;29;97661;-73
2023/03/12 05:55:38;;;;;;;0.20;0.20;;;;;;;18.93;38.88;100740.16;4835264;29;98422;-73
2023/03/12 05:58:06;;;;;;;0.35;0.20;;;;;;;18.92;38.99;100724.84;4834906;29;96990;-75
2023/03/12 06:00:36;;;;;;;0.10;0.10;;;;;;;18.95;39.21;100728.09;4834201;29;96707;-74
2023/03/12 06:03:05;;;;;;;0.30;0.20;;;;;;;18.93;39.19;100719.25;4819102;29;98633;-76
2023/03/12 06:05:33;;;;;;;0.35;0.28;;;;;;;18.89;39.19;100723.31;4834804;29;99776;-74
2023/03/12 06:08:01;;;;;;;0.30;0.20;;;;;;;18.90;39.25;100732.34;4835756;29;96944;-73
2023/03/12 06:10:28;;;;;;;0.65;0.22;;;;;;;18.90;38.96;100730.47;4834782;29;96923;-74
2023/03/12 06:12:55;;;;;;;0.28;0.20;;;;;;;18.90;39.18;100730.47;4835348;29;99539;-73
2023/03/12 06:15:22;;;;;;;0.40;0.30;;;;;;;18.90;39.21;100735.06;4834303;29;97303;-73
2023/03/12 06:17:49;;;;;;;0.30;0.20;;;;;;;18.93;38.94;100730.13;4835202;29;96752;-73
2023/03/12 06:20:16;;;;;;;0.40;0.30;;;;;;;18.91;39.08;100734.91;4818921;29;97197;-73
2023/03/12 06:22:42;;;;;;;0.20;0.20;;;;;;;18.92;39.28;100727.56;4836731;29;97154;-73
2023/03/12 06:25:09;;;;;;;0.80;0.25;;;;;;;18.90;39.23;100724.16;4834952;29;97325;-73
2023/03/12 06:27:36;;;;;;;0.40;0.20;;;;;;;18.91;39.18;100718.56;4834825;29;98280;-73
2023/03/12 06:30:03;;;;;;;0.20;0.20;;;;;;;18.94;38.95;100726.41;4849937;29;99027;-74
2023/03/12 06:32:30;;;;;;;0.10;0.10;;;;;;;18.94;39.08;100723.69;4849961;29;96902;-73
2023/03/12 06:34:59;;;;;;;0.17;0.17;;;;;;;18.94;38.83;100726.41;4836198;29;97599;-73
2023/03/12 06:37:26;;;;;;;0.73;0.20;;;;;;;18.94;39.04;100725.53;4835833;29;96794;-76
2023/03/12 06:39:53;;;;;;;0.20;0.20;;;;;;;18.94;39.28;100723.69;4834738;29;96598;-74
2023/03/12 06:42:21;;;;;;;0.52;0.20;;;;;;;18.94;38.91;100726.41;4845086;29;97872;-74
2023/03/12 06:44:49;;;;;;;0.40;0.20;;;;;;;18.95;38.99;100729.97;4840505;28;97003;-74
2023/03/12 06:47:15;;;;;;;0.45;0.25;;;;;;;18.93;38.77;100723.84;4836634;29;96955;-73
2023/03/12 06:49:43;;;;;;;0.30;0.20;;;;;;;18.91;39.23;100720.44;4844585;29;97523;-73
2023/03/12 06:52:09;;;;;;;0.20;0.20;;;;;;;18.91;39.28;100715.84;4849263;29;97156;-73
2023/03/12 06:54:36;;;;;;;0.22;0.20;;;;;;;18.95;39.03;100714.50;4836552;29;97336;-75
2023/03/12 06:57:03;;;;;;;0.32;0.25;;;;;;;18.95;39.00;100713.66;4834034;29;96824;-74
2023/03/12 06:59:29;;;;;;;0.40;0.30;;;;;;;18.93;38.98;100713.81;4841392;29;97131;-74
2023/03/12 07:01:56;;;;;;;0.20;0.20;;;;;;;18.93;38.85;100715.69;4836346;29;98301;-74
2023/03/12 07:04:22;;;;;;;0.40;0.20;;;;;;;18.94;38.99;100710.06;4836806;29;97050;-75
2023/03/12 07:06:50;;;;;;;0.20;0.20;;;;;;;18.93;39.15;100708.38;4836407;29;97490;-73
2023/03/12 07:09:17;;;;;;;0.20;0.20;;;;;;;18.92;39.18;100705.81;4835503;29;97007;-73
2023/03/12 07:11:44;;;;;;;0.30;0.25;;;;;;;18.91;39.28;100704.97;4835813;29;97030;-73
2023/03/12 07:14:11;;;;;;;0.43;0.30;;;;;;;18.91;38.88;100698.66;4836286;29;96813;-73
2023/03/12 07:16:37;;;;;;;0.50;0.22;;;;;;;18.90;38.95;100691.53;4835069;29;96704;-73
2023/03/12 07:19:04;;;;;;;0.20;0.20;;;;;;;18.90;39.24;100694.25;4836415;29;96734;-73
2023/03/12 07:21:30;;;;;;;0.68;0.20;;;;;;;18.88;39.25;100688.97;4834870;29;97021;-74
2023/03/12 07:23:57;;;;;;;0.28;0.20;;;;;;;18.87;38.88;100692.69;4835079;29;96940;-73
2023/03/12 07:26:23;;;;;;;0.30;0.20;;;;;;;18.87;38.90;100687.25;4835472;29;97056;-73
2023/03/12 07:28:50;;;;;;;0.32;0.20;;;;;;;18.90;39.34;100691.53;4836287;29;96713;-73
2023/03/12 07:31:16;;;;;;;0.50;0.20;;;;;;;18.92;39.31;100697.66;4835653;29;97247;-73
2023/03/12 07:33:43;;;;;;;0.25;0.20;;;;;;;18.94;39.11;100698.34;4836003;29;97641;-73
2023/03/12 07:36:10;;;;;;;0.20;0.20;;;;;;;18.95;38.99;100697.31;4836673;29;96755;-74
2023/03/12 07:38:46;;;;;;;0.20;0.20;;;;;;;18.94;39.27;100692.88;4835944;29;98297;-73
2023/03/12 07:41:12;;;;;;;0.95;0.20;;;;;;;18.94;39.03;100691.03;4836941;29;96894;-73
2023/03/12 07:43:39;;;;;;;0.57;0.30;;;;;;;18.91;39.08;100695.94;4839472;29;97434;-73
2023/03/12 07:46:05;;;;;;;0.25;0.20;;;;;;;18.87;39.04;100684.53;4838528;29;97282;-73
2023/03/12 07:48:32;;;;;;;0.43;0.20;;;;;;;18.86;39.31;100691.00;4839079;29;97100;-73
2023/03/12 07:50:58;;;;;;;0.40;0.30;;;;;;;18.85;39.34;100694.75;4852865;29;97726;-73
2023/03/12 07:53:25;;;;;;;0.30;0.30;;;;;;;18.83;39.11;100691.34;4838259;29;97535;-73
2023/03/12 07:55:53;;;;;;;0.20;0.20;;;;;;;18.86;39.10;100690.16;4838615;29;97129;-74
2023/03/12 07:58:20;;;;;;;0.20;0.20;;;;;;;18.86;39.31;100685.56;4837514;29;96781;-73
2023/03/12 08:00:47;;;;;;;0.20;0.20;;;;;;;18.88;39.10;100682.66;4838455;29;97482;-73
2023/03/12 08:03:13;;;;;;;0.65;0.45;;;;;;;18.89;39.11;100693.38;4822039;29;97318;-73
2023/03/12 08:05:40;;;;;;;0.40;0.30;;;;;;;18.90;38.97;100691.53;4839317;29;96847;-72
2023/03/12 08:08:07;;;;;;;0.20;0.20;;;;;;;18.87;38.78;100692.69;4839262;29;97301;-73
2023/03/12 08:10:35;;;;;;;0.25;0.25;;;;;;;18.91;39.15;100691.34;4838609;29;96803;-73
2023/03/12 08:13:01;;;;;;;0.20;0.20;;;;;;;18.90;38.92;100689.66;4839265;29;97140;-73
2023/03/12 08:15:28;;;;;;;0.55;0.10;;;;;;;18.90;38.85;100683.34;4839558;29;96390;-73
2023/03/12 08:17:55;;;;;;;0.40;0.20;;;;;;;18.89;39.03;100690.66;4838756;29;97077;-73
2023/03/12 08:20:21;;;;;;;0.30;0.10;;;;;;;18.86;39.18;100691.00;4838146;29;97617;-73
2023/03/12 08:22:48;;;;;;;0.28;0.20;;;;;;;18.87;39.38;100687.25;4838891;29;97048;-73
2023/03/12 08:25:14;;;;;;;0.20;0.20;;;;;;;18.88;38.98;100691.69;4837495;29;96826;-73
2023/03/12 08:27:41;;;;;;;0.40;0.30;;;;;;;18.87;39.06;100686.41;4838370;29;98471;-73
2023/03/12 08:30:08;;;;;;;0.63;0.20;;;;;;;18.85;39.00;100683.84;4838055;29;96753;-73
2023/03/12 08:32:35;;;;;;;0.40;0.20;;;;;;;18.83;39.39;100683.16;4838169;29;97002;-73
2023/03/12 08:35:04;;;;;;;0.30;0.20;;;;;;;18.84;39.08;100690.31;4852683;29;96866;-73
2023/03/12 08:37:30;;;;;;;0.25;0.20;;;;;;;18.86;39.23;100687.44;4837109;29;97169;-74
2023/03/12 08:39:57;;;;;;;0.25;0.20;;;;;;;18.84;39.19;100684.88;4837909;29;96702;-73
2023/03/12 08:42:24;;;;;;;0.50;0.30;;;;;;;18.90;39.06;100683.34;4832928;29;96933;-73
2023/03/12 08:44:50;;;;;;;0.40;0.30;;;;;;;18.86;39.07;100674.69;4838612;29;96882;-73
2023/03/12 08:47:17;;;;;;;0.20;0.20;;;;;;;18.89;39.04;100684.38;4837957;29;97369;-73
2023/03/12 08:49:43;;;;;;;0.43;0.20;;;;;;;18.90;39.21;100686.94;4836230;29;97853;-73
2023/03/12 08:52:10;;;;;;;0.75;0.30;;;;;;;18.94;39.40;100688.28;4838642;29;98041;-73
2023/03/12 08:54:36;;;;;;;0.20;0.20;;;;;;;18.91;38.97;100695.94;4838812;29;96884;-73
2023/03/12 08:57:03;;;;;;;0.40;0.30;;;;;;;18.90;38.93;100697.81;4838375;29;96845;-74
2023/03/12 08:59:29;;;;;;;0.22;0.20;;;;;;;18.90;39.23;100696.97;4834257;29;100822;-73
2023/03/12 09:01:56;;;;;;;0.45;0.30;;;;;;;18.88;39.17;100699.84;4836343;29;97749;-73
2023/03/12 09:04:22;;;;;;;0.22;0.20;;;;;;;18.91;38.91;100695.94;4838591;29;97273;-73
2023/03/12 09:06:49;;;;;;;0.17;0.17;;;;;;;18.94;38.84;100698.34;4838226;29;96876;-74
2023/03/12 09:09:16;;;;;;;0.30;0.20;;;;;;;18.92;38.88;100697.66;4835681;29;97246;-73
2023/03/12 09:11:42;;;;;;;0.35;0.20;;;;;;;18.94;39.32;100701.06;4837021;29;97855;-73
2023/03/12 09:14:09;;;;;;;0.20;0.20;;;;;;;18.93;39.20;100708.38;4837382;29;97083;-73
2023/03/12 09:16:56;;;;;;;0.22;0.20;;;;;;;18.91;39.16;100706.81;4837328;29;96777;-73
2023/03/12 09:19:23;;;;;;;0.20;0.20;;;;;;;18.91;39.20;100704.97;4837944;29;97539;-74
2023/03/12 09:21:50;;;;;;;0.57;0.30;;;;;;;18.86;39.02;100703.75;4837715;29;97966;-74
2023/03/12 09:24:16;;;;;;;0.90;0.30;;;;;;;18.87;39.24;100706.31;4837657;29;97249;-73
2023/03/12 09:26:43;;;;;;;1.35;0.38;;;;;;;18.88;39.11;100704.44;4838198;29;96601;-73
2023/03/12 09:29:09;;;;;;;0.52;0.35;;;;;;;18.86;38.98;100698.31;4835635;29;97931;-74
2023/03/12 09:31:36;;;;;;;0.95;0.40;;;;;;;18.83;39.15;100691.34;4836001;29;97697;-73
2023/03/12 09:34:03;;;;;;;0.60;0.30;;;;;;;18.82;38.79;100695.06;4838085;29;98429;-73
2023/03/12 09:36:30;;;;;;;1.02;0.40;;;;;;;18.81;39.10;100696.09;4837555;29;97047;-73
2023/03/12 09:39:02;;;;;;;0.82;0.40;;;;;;;18.79;39.10;100689.97;4839057;29;98483;-73
2023/03/12 09:41:37;;;;;;;0.28;0.28;;;;;;;18.78;39.03;100693.69;4836784;29;96946;-74
2023/03/12 09:44:22;;;;;;;;;;;;;;;18.77;38.83;100694.72;4833925;29;96826;-74
2023/03/12 09:46:55;;;;;;;1.63;0.60;;;;;;;18.77;39.02;100689.28;4834994;29;96983;-74
2023/03/12 09:49:39;;;;;;;0.90;0.50;;;;;;;18.76;38.85;100689.44;4840905;29;96866;-74
2023/03/12 09:52:20;;;;;;;1.37;0.63;;;;;;;18.73;39.18;100702.34;4824087;29;100111;-75
2023/03/12 09:54:58;;;;;;;0.70;0.40;;;;;;;18.72;38.82;100703.38;4835973;29;96732;-74
2023/03/12 09:57:27;;;;;;;1.63;0.68;;;;;;;18.72;39.00;100702.53;4836266;29;97225;-73
2023/03/12 09:59:55;;;;;;;0.50;0.40;;;;;;;18.73;39.01;100713.25;4836974;29;97154;-73
2023/03/12 10:02:46;;;;;;;1.00;0.40;;;;;;;18.69;38.95;100711.00;4837139;29;98463;-74
2023/03/12 10:05:34;;;;;;;0.95;0.40;;;;;;;18.69;39.19;100713.72;4837633;29;96744;-73
2023/03/12 10:08:38;;;;;;;0.93;0.50;;;;;;;18.67;39.35;100715.78;4837723;29;98252;-73
2023/03/12 10:11:28;;;;;;;1.73;0.60;;;;;;;18.68;39.13;100712.88;4807629;29;99000;-73
2023/03/12 10:14:06;;;;;;;1.17;0.50;;;;;;;18.68;39.09;100714.75;4837196;29;96725;-74
2023/03/12 10:17:01;;;;;;;2.85;0.80;;;;;;;18.68;39.02;100718.31;4836980;29;96742;-74
2023/03/12 10:19:43;;;;;;;1.65;0.50;;;;;;;18.68;39.40;100712.03;4837010;29;96796;-74
2023/03/12 10:22:17;;;;;;;0.80;0.50;;;;;;;18.67;39.36;100711.19;4837001;29;97862;-74
2023/03/12 10:24:59;;;;;;;0.82;0.50;;;;;;;18.67;39.48;100715.78;4836946;29;97451;-73
2023/03/12 10:27:29;;;;;;;1.15;0.65;;;;;;;18.68;39.29;100714.75;4837043;29;98604;-73
2023/03/12 10:29:56;;;;;;;1.77;0.43;;;;;;;18.70;39.41;100710.00;4836574;29;97257;-73
2023/03/12 10:32:40;;;;;;;0.95;0.52;;;;;;;18.70;39.03;100712.72;4849768;29;96833;-74
2023/03/12 10:35:20;;;;;;;1.05;0.43;;;;;;;18.68;39.09;100709.31;4836369;29;97160;-74
2023/03/12 10:37:57;;;;;;;2.58;0.50;;;;;;;18.68;39.08;100707.44;4835280;29;96648;-73
2023/03/12 10:40:27;;;;;;;0.70;0.50;;;;;;;18.69;39.18;100709.16;4835719;29;96982;-73
2023/03/12 10:42:54;;;;;;;1.10;0.55;;;;;;;18.68;39.38;100712.88;4834099;29;97418;-73
2023/03/12 10:45:37;;;;;;;0.75;0.60;;;;;;;18.70;39.19;100713.56;4837071;29;98228;-73
2023/03/12 10:48:07;;;;;;;0.98;0.70;;;;;;;18.70;39.09;100715.44;4835107;29;97192;-73
2023/03/12 10:50:39;;;;;;;0.88;0.55;;;;;;;18.71;39.30;100712.56;4835458;29;96817;-73
2023/03/12 10:53:11;;;;;;;1.83;0.60;;;;;;;18.69;39.45;100711.88;4836134;29;97546;-74
2023/03/12 10:55:38;;;;;;;1.33;0.57;;;;;;;18.72;39.39;100707.97;4834956;29;96747;-73
2023/03/12 10:58:05;;;;;;;2.28;0.80;;;;;;;18.72;39.57;100695.22;4836597;29;96823;-74
2023/03/12 11:00:32;;;;;;;1.35;0.88;;;;;;;18.72;39.30;100694.38;4834820;29;96955;-75
2023/03/12 11:03:03;;;;;;;3.13;0.70;;;;;;;18.71;39.24;100698.94;4836510;29;96977;-74
2023/03/12 11:05:44;;;;;;;0.93;0.65;;;;;;;18.75;39.44;100704.06;4836184;29;97326;-74
2023/03/12 11:08:26;;;;;;;1.85;0.90;;;;;;;18.75;39.36;100693.19;4835850;29;96930;-74
2023/03/12 11:10:56;;;;;;;1.38;0.75;;;;;;;18.72;39.52;100702.53;4836076;29;96797;-75
2023/03/12 11:13:26;;;;;;;1.77;0.80;;;;;;;18.73;39.58;100707.81;4836258;29;96944;-74
2023/03/12 11:15:54;;;;;;;1.08;0.60;;;;;;;18.73;39.25;100707.81;4836489;29;97516;-75
2023/03/12 11:18:29;;;;;;;1.48;0.80;;;;;;;18.72;39.14;100705.25;4840176;29;96667;-74
2023/03/12 11:20:57;;;;;;;1.27;0.95;;;;;;;18.72;39.71;100705.25;4836938;29;96954;-74
2023/03/12 11:23:24;;;;;;;1.33;0.88;;;;;;;18.73;39.43;100713.25;4837508;29;98399;-74
2023/03/12 11:25:52;;;;;;;1.27;0.77;;;;;;;18.72;39.56;100707.97;4854225;28;100129;-75
2023/03/12 11:28:28;;;;;;;0.80;0.70;;;;;;;18.75;39.63;100706.78;4834208;29;97200;-74
2023/03/12 11:30:57;;;;;;;0.90;0.70;;;;;;;18.76;39.34;100716.66;4837829;29;98862;-75
2023/03/12 11:33:24;;;;;;;1.63;0.90;;;;;;;18.75;39.33;100715.78;4837002;29;96862;-74